Time;durP1;ratioP1;P1;durP2;ratioP2;P2;SDS_P1;SDS_P2;PMS_P1;PMS_P2;Temp;Humidity;BMP_temperature;BMP_pressure;BME280_temperature;BME280_humidity;BME280_pressure;Samples;Min_cycle;Max_cycle;Signal;HPM_P1;HPM_P2
2021/07/09 02:31:09;;;;;;;5.07;2.28;;;;;;;16.49;83.80;100067.03;2225813;40;20060;-84
2021/07/09 02:32:41;;;;;;;6.72;2.60;;;;;;;16.54;83.89;100066.47;2219343;40;20587;-84
2021/07/09 02:34:12;;;;;;;4.35;2.25;;;;;;;16.56;83.80;100069.00;2237106;39;20043;-85
2021/07/09 02:35:44;;;;;;;7.45;3.10;;;;;;;16.56;83.73;100061.75;2234385;40;20376;-82
2021/07/09 02:37:16;;;;;;;6.18;2.63;;;;;;;16.55;83.70;100056.53;2234860;40;20028;-83
2021/07/09 02:41:15;;;;;;;7.07;3.22;;;;;;;16.57;83.63;100062.59;2235001;40;20052;-85
2021/07/09 02:42:59;;;;;;;9.13;2.78;;;;;;;16.53;83.62;100057.56;2235459;40;20029;-84
2021/07/09 02:44:46;;;;;;;7.20;3.20;;;;;;;16.53;83.69;100064.84;2235148;40;20477;-84
2021/07/09 02:46:18;;;;;;;5.10;2.70;;;;;;;16.52;84.12;100060.44;2234607;39;20048;-79
2021/07/09 02:47:52;;;;;;;7.82;3.50;;;;;;;16.50;84.21;100065.19;2234789;40;20048;-80
2021/07/09 02:49:23;;;;;;;7.65;2.80;;;;;;;16.51;84.13;100069.56;2234696;40;20404;-83
2021/07/09 02:50:55;;;;;;;6.82;3.22;;;;;;;16.48;84.21;100073.44;2234761;40;20033;-83
2021/07/09 02:52:26;;;;;;;7.75;3.15;;;;;;;16.49;83.92;100075.13;2235671;40;20033;-84
2021/07/09 02:53:58;;;;;;;8.02;3.42;;;;;;;16.47;83.98;100063.69;2235958;39;20040;-86
2021/07/09 02:55:29;;;;;;;7.40;3.30;;;;;;;16.48;84.00;100069.91;2234961;40;21544;-85
2021/07/09 02:57:01;;;;;;;6.03;3.22;;;;;;;16.44;84.25;100065.91;2235177;40;20029;-86
2021/07/09 02:58:33;;;;;;;6.95;2.60;;;;;;;16.46;84.33;100061.16;2234397;40;20036;-79
2021/07/09 03:00:04;;;;;;;8.25;2.72;;;;;;;16.48;84.23;100067.22;2228529;40;20089;-84
2021/07/09 03:01:40;;;;;;;5.32;2.72;;;;;;;16.48;84.41;100067.22;2228636;40;20558;-86
2021/07/09 03:03:13;;;;;;;6.82;2.85;;;;;;;16.51;84.42;100061.47;2228818;40;20097;-86
2021/07/09 03:41:07;;;;;;;6.72;3.45;;;;;;;16.38;84.58;100081.81;2220256;40;20029;-83
2021/07/09 03:43:10;;;;;;;7.75;3.50;;;;;;;16.41;84.44;100090.56;2216622;40;20081;-85
2021/07/09 04:08:37;;;;;;;7.95;3.85;;;;;;;16.27;84.68;100098.41;2209480;40;21856;-83
2021/07/09 05:08:55;;;;;;;9.07;3.47;;;;;;;16.34;86.04;100152.50;2664847;23;20072;-83
2021/07/09 07:03:38;;;;;;;8.52;4.63;;;;;;;16.11;86.09;100242.28;2222377;40;20029;-83
2021/07/09 07:19:54;;;;;;;8.10;4.30;;;;;;;16.29;84.93;100250.13;2222098;40;20037;-85
2021/07/09 07:22:05;;;;;;;6.43;4.20;;;;;;;16.32;84.57;100257.88;2203991;40;20026;-80
2021/07/09 07:23:37;;;;;;;7.45;5.47;;;;;;;16.31;84.79;100250.81;2185573;40;20129;-84
2021/07/09 07:25:10;;;;;;;8.35;4.40;;;;;;;16.32;84.71;100257.03;2196515;40;20059;-84
2021/07/09 07:26:42;;;;;;;6.15;3.92;;;;;;;16.34;84.64;100260.41;2221175;40;20025;-84
2021/07/09 08:31:02;;;;;;;9.18;5.03;;;;;;;17.10;81.68;100267.78;2227329;40;19998;-84
2021/07/09 08:32:35;;;;;;;10.07;4.45;;;;;;;17.15;81.93;100268.09;2228898;40;20025;-85
2021/07/09 08:34:07;;;;;;;10.40;4.57;;;;;;;17.18;81.68;100270.44;2228700;40;20497;-88
2021/07/09 10:41:22;;;;;;;6.43;4.28;;;;;;;20.58;68.59;100283.09;2206022;40;20485;-83
2021/07/09 10:42:55;;;;;;;4.93;3.72;;;;;;;20.70;68.05;100286.88;2194836;40;20031;-85
2021/07/09 10:44:26;;;;;;;7.10;4.70;;;;;;;20.82;67.58;100283.59;2208665;40;20026;-87
2021/07/09 10:46:07;;;;;;;7.82;4.80;;;;;;;20.81;66.51;100281.91;2208719;40;20042;-85
2021/07/09 10:47:39;;;;;;;10.18;4.43;;;;;;;20.81;66.46;100277.31;2210971;40;20046;-83
2021/07/09 10:49:12;;;;;;;7.13;4.65;;;;;;;20.91;65.67;100276.09;2222278;40;20026;-89
2021/07/09 10:50:45;;;;;;;9.18;4.30;;;;;;;21.01;65.64;100277.34;2222492;40;20038;-88
2021/07/09 10:52:42;;;;;;;6.80;4.00;;;;;;;21.37;64.50;100277.13;2222745;40;20030;-90
2021/07/09 10:54:27;;;;;;;6.85;4.35;;;;;;;21.55;63.85;100263.69;2222434;40;20032;-81
2021/07/09 10:56:08;;;;;;;7.57;4.93;;;;;;;21.65;62.83;100277.72;2222194;40;20048;-88
2021/07/09 10:58:00;;;;;;;14.85;4.18;;;;;;;21.95;61.92;100266.34;2222651;40;20025;-87
2021/07/09 10:59:32;;;;;;;9.02;5.13;;;;;;;22.24;60.26;100261.41;2222483;40;20074;-89
2021/07/09 11:01:31;;;;;;;7.28;4.70;;;;;;;22.06;60.56;100266.72;2222729;40;20033;-87
2021/07/09 11:09:21;;;;;;;8.15;3.97;;;;;;;22.25;60.58;100263.09;2227906;40;20022;-88
2021/07/09 11:10:55;;;;;;;7.30;4.40;;;;;;;22.49;60.07;100255.22;2221433;40;20025;-89
2021/07/09 11:14:03;;;;;;;9.95;4.20;;;;;;;22.97;59.10;100255.75;2224841;40;20041;-83
2021/07/09 11:15:39;;;;;;;6.25;4.28;;;;;;;22.87;58.53;100246.19;2225454;40;20495;-83
2021/07/09 11:17:15;;;;;;;8.18;3.92;;;;;;;22.79;58.45;100246.44;2226512;39;20029;-82
2021/07/09 11:18:48;;;;;;;7.82;3.42;;;;;;;22.74;58.22;100246.28;2222362;40;20044;-86
2021/07/09 11:20:21;;;;;;;8.15;3.95;;;;;;;22.80;57.74;100242.66;2222799;40;20069;-88
2021/07/09 11:29:42;;;;;;;6.47;4.07;;;;;;;22.56;57.87;100244.31;2221762;40;20134;-89
2021/07/09 11:35:52;;;;;;;6.35;3.83;;;;;;;22.39;58.09;100230.31;2221835;40;20029;-88
2021/07/09 11:39:15;;;;;;;9.20;4.40;;;;;;;22.18;58.26;100229.63;2221293;40;20226;-89
2021/07/09 11:40:47;;;;;;;6.47;4.20;;;;;;;22.03;59.09;100234.50;2216871;40;20030;-88
2021/07/09 11:42:21;;;;;;;6.10;4.40;;;;;;;21.93;59.36;100233.06;2216545;40;20030;-87
2021/07/09 11:43:52;;;;;;;7.78;4.72;;;;;;;21.75;58.98;100243.81;2216447;40;20026;-93
2021/07/09 11:50:15;;;;;;;13.80;5.22;;;;;;;21.30;60.94;100244.50;2219968;40;20522;-88
2021/07/09 11:51:47;;;;;;;6.97;4.93;;;;;;;21.17;61.81;100242.63;2203286;40;20645;-86
2021/07/09 11:59:46;;;;;;;7.10;4.72;;;;;;;21.67;62.80;100244.91;2221691;40;20045;-83
2021/07/09 12:01:17;;;;;;;6.65;4.53;;;;;;;21.89;62.35;100237.28;2225318;40;20041;-82
2021/07/09 12:02:50;;;;;;;7.30;4.82;;;;;;;22.10;61.78;100235.31;2230768;40;20032;-82
2021/07/09 12:04:28;;;;;;;6.85;4.95;;;;;;;22.26;61.25;100228.53;2238722;40;20043;-81
2021/07/09 12:06:01;;;;;;;9.00;5.57;;;;;;;22.13;60.62;100234.88;2235507;39;20094;-83
2021/07/09 12:07:35;;;;;;;8.63;4.68;;;;;;;22.08;60.84;100240.97;2233123;40;20051;-81
2021/07/09 12:09:05;;;;;;;9.63;4.70;;;;;;;21.99;61.05;100228.66;2232048;39;20044;-83
2021/07/09 12:10:38;;;;;;;7.00;4.50;;;;;;;21.97;61.27;100236.19;2233556;39;20028;-80
2021/07/09 12:12:08;;;;;;;6.55;3.72;;;;;;;21.96;61.21;100237.28;2232712;40;20028;-83
2021/07/09 12:13:43;;;;;;;7.05;4.00;;;;;;;21.94;60.48;100233.91;2234536;40;20044;-89
2021/07/09 12:15:18;;;;;;;6.03;3.60;;;;;;;21.97;60.24;100233.47;2227434;39;20029;-87
2021/07/09 12:16:54;;;;;;;6.00;3.75;;;;;;;22.02;59.87;100228.22;2213960;40;20046;-91
2021/07/09 12:21:54;;;;;;;5.40;3.47;;;;;;;22.15;58.35;100234.69;2225205;40;20069;-81
2021/07/09 12:23:33;;;;;;;6.78;3.10;;;;;;;22.12;57.98;100234.06;2219979;40;20052;-83
2021/07/09 12:25:07;;;;;;;6.93;3.35;;;;;;;22.17;58.09;100233.41;2220601;40;20593;-83
2021/07/09 12:26:39;;;;;;;5.68;3.10;;;;;;;22.17;57.72;100233.41;2220719;40;20039;-83
2021/07/09 12:28:12;;;;;;;6.60;3.35;;;;;;;22.26;57.55;100228.53;2220873;40;20302;-84
2021/07/09 12:29:43;;;;;;;6.05;3.85;;;;;;;22.23;57.50;100235.25;2220745;40;20452;-82
2021/07/09 12:31:15;;;;;;;7.20;3.40;;;;;;;22.11;58.41;100229.66;2220234;40;20042;-81
2021/07/09 12:32:49;;;;;;;7.03;3.28;;;;;;;22.09;58.85;100229.03;2219902;40;20034;-84
2021/07/09 12:34:24;;;;;;;6.38;3.75;;;;;;;22.12;58.92;100230.47;2221523;40;20029;-83
2021/07/09 12:35:59;;;;;;;6.90;3.75;;;;;;;22.13;58.81;100223.97;2221124;40;20068;-81
2021/07/09 12:37:31;;;;;;;6.07;3.50;;;;;;;22.22;58.84;100216.41;2221615;40;20057;-81
2021/07/09 12:39:05;;;;;;;8.82;3.92;;;;;;;22.24;58.28;100209.69;2219511;40;20027;-82
2021/07/09 12:40:40;;;;;;;6.05;3.60;;;;;;;22.19;57.96;100211.41;2219850;40;20032;-82
2021/07/09 12:42:13;;;;;;;5.70;3.20;;;;;;;22.23;57.70;100205.28;2222527;40;20041;-83
2021/07/09 12:43:46;;;;;;;6.15;3.58;;;;;;;22.34;57.71;100214.66;2219149;40;20043;-83
2021/07/09 12:45:17;;;;;;;5.88;3.47;;;;;;;22.50;57.49;100212.50;2220068;40;20294;-83
2021/07/09 12:46:49;;;;;;;7.13;4.63;;;;;;;22.58;57.33;100207.59;2220200;40;20057;-81
2021/07/09 12:48:33;;;;;;;8.40;3.75;;;;;;;22.74;57.04;100213.59;2219025;40;20041;-83
2021/07/09 12:50:16;;;;;;;6.05;3.72;;;;;;;22.80;56.68;100215.41;2219146;40;20053;-81
2021/07/09 12:51:48;;;;;;;5.90;3.72;;;;;;;22.90;56.65;100213.03;2221258;40;20028;-83
2021/07/09 12:53:22;;;;;;;6.80;3.75;;;;;;;23.06;56.39;100213.53;2219615;40;20767;-84
2021/07/09 12:54:54;;;;;;;7.68;3.30;;;;;;;23.07;56.35;100215.19;2217268;40;20026;-84
2021/07/09 12:56:28;;;;;;;7.50;3.58;;;;;;;23.12;56.23;100206.34;2213981;40;20037;-84
2021/07/09 12:58:08;;;;;;;6.50;3.65;;;;;;;23.04;55.72;100207.47;2219903;40;20053;-85
2021/07/09 12:59:39;;;;;;;6.32;3.70;;;;;;;22.98;55.87;100219.25;2218885;40;20457;-84
2021/07/09 13:01:10;;;;;;;6.63;3.92;;;;;;;23.04;56.01;100213.75;2219797;40;20038;-85
2021/07/09 13:02:42;;;;;;;9.90;4.70;;;;;;;23.09;55.29;100212.25;2219905;40;20030;-85
2021/07/09 13:04:18;;;;;;;8.18;3.72;;;;;;;23.02;55.16;100215.03;2217453;40;20033;-84
2021/07/09 13:06:00;;;;;;;6.10;3.25;;;;;;;23.01;55.40;100207.91;2219561;40;20053;-85
2021/07/09 13:07:32;;;;;;;8.02;4.13;;;;;;;23.08;55.71;100213.31;2220047;40;20036;-82
2021/07/09 13:09:15;;;;;;;4.88;3.28;;;;;;;23.10;55.56;100212.03;2220636;40;20049;-81
2021/07/09 13:10:46;;;;;;;7.57;3.92;;;;;;;23.12;55.55;100215.38;2221109;40;20025;-82
2021/07/09 13:12:21;;;;;;;7.15;3.80;;;;;;;23.02;55.64;100215.88;2221309;40;20041;-83
2021/07/09 13:13:54;;;;;;;8.30;4.40;;;;;;;22.99;56.19;100220.94;2220918;40;20022;-81
2021/07/09 13:15:25;;;;;;;6.85;3.60;;;;;;;22.96;56.85;100232.28;2222048;40;20030;-83
2021/07/09 13:16:58;;;;;;;6.07;4.10;;;;;;;22.92;57.22;100226.44;2222914;40;20029;-82
2021/07/09 13:18:30;;;;;;;10.98;5.00;;;;;;;22.80;58.07;100226.31;2220245;40;20450;-83
2021/07/09 13:20:04;;;;;;;8.95;4.40;;;;;;;22.68;58.06;100225.34;2221419;40;20041;-83
2021/07/09 13:21:46;;;;;;;7.57;4.00;;;;;;;22.51;58.26;100231.34;2221994;40;20543;-81
2021/07/09 13:23:18;;;;;;;8.18;3.97;;;;;;;22.38;57.93;100231.41;2223063;40;20037;-84
2021/07/09 13:24:51;;;;;;;6.13;4.07;;;;;;;22.28;57.13;100238.16;2215995;40;20038;-82
2021/07/09 13:26:23;;;;;;;5.75;3.60;;;;;;;22.25;56.54;100230.41;2223096;40;20075;-85
2021/07/09 13:27:57;;;;;;;5.07;3.40;;;;;;;22.32;56.18;100226.81;2222475;40;20630;-82
2021/07/09 13:29:29;;;;;;;5.03;3.47;;;;;;;22.37;55.97;100229.75;2222106;40;20026;-81
2021/07/09 13:31:00;;;;;;;6.53;4.20;;;;;;;22.29;55.96;100228.91;2221729;40;20026;-80
2021/07/09 13:32:33;;;;;;;6.20;4.43;;;;;;;22.17;56.39;100219.78;2221916;40;20041;-81
2021/07/09 13:34:05;;;;;;;7.22;4.00;;;;;;;22.07;57.01;100224.84;2221944;40;20091;-83
2021/07/09 13:35:37;;;;;;;7.00;3.97;;;;;;;21.99;57.50;100222.38;2222276;40;20045;-84
2021/07/09 13:37:14;;;;;;;7.03;3.80;;;;;;;22.00;57.77;100224.88;2222445;40;20033;-84
2021/07/09 13:38:46;;;;;;;6.78;4.20;;;;;;;22.03;57.90;100224.47;2221033;40;20018;-84
2021/07/09 13:40:20;;;;;;;6.55;4.50;;;;;;;21.99;58.00;100225.94;2220512;40;20033;-83
2021/07/09 13:41:51;;;;;;;7.65;4.47;;;;;;;21.83;58.65;100229.97;2220416;40;20042;-81
2021/07/09 13:43:23;;;;;;;9.10;5.28;;;;;;;21.73;59.31;100232.28;2215873;40;20045;-85
2021/07/09 13:48:09;;;;;;;7.55;4.38;;;;;;;21.55;60.00;100239.22;2221274;40;20038;-85
2021/07/09 13:49:41;;;;;;;6.38;4.13;;;;;;;21.51;60.25;100244.25;2216213;40;20461;-84
2021/07/09 13:51:14;;;;;;;6.93;4.00;;;;;;;21.51;59.85;100244.25;2218165;40;20034;-87
2021/07/09 13:52:46;;;;;;;5.38;3.85;;;;;;;21.50;59.54;100252.63;2215848;40;20056;-85
2021/07/09 13:54:17;;;;;;;5.28;3.72;;;;;;;21.50;59.40;100247.19;2214980;40;20038;-85
2021/07/09 13:55:49;;;;;;;5.07;3.20;;;;;;;21.34;59.33;100257.47;2215470;40;20026;-86
2021/07/09 13:57:21;;;;;;;3.80;2.42;;;;;;;21.10;59.49;100256.25;2215792;40;20026;-85
2021/07/09 13:58:53;;;;;;;4.00;2.75;;;;;;;20.97;60.44;100264.38;2216136;40;20049;-86
2021/07/09 14:00:24;;;;;;;4.53;2.80;;;;;;;20.93;61.29;100253.09;2215675;40;20453;-87
2021/07/09 14:01:56;;;;;;;4.97;3.20;;;;;;;20.94;61.92;100252.03;2217487;40;20052;-85
2021/07/09 14:03:28;;;;;;;4.85;3.00;;;;;;;20.93;62.05;100252.22;2222199;40;20040;-85
2021/07/09 14:05:00;;;;;;;4.68;3.00;;;;;;;20.85;62.27;100250.56;2222141;40;20042;-85
2021/07/09 14:06:32;;;;;;;5.70;3.42;;;;;;;20.76;63.27;100251.81;2222413;40;20022;-87
2021/07/09 14:08:03;;;;;;;5.28;2.95;;;;;;;20.72;63.76;100245.94;2216444;40;20040;-87
2021/07/09 14:09:35;;;;;;;8.95;3.67;;;;;;;20.63;64.22;100248.00;2216024;40;20364;-87
2021/07/09 14:18:37;;;;;;;5.40;3.33;;;;;;;20.80;63.29;100253.06;2216950;40;20061;-85
2021/07/09 14:20:11;;;;;;;6.35;3.50;;;;;;;20.91;63.10;100257.88;2225481;40;20201;-85
2021/07/09 14:21:53;;;;;;;4.20;2.38;;;;;;;20.90;62.20;100256.22;2216733;40;20049;-84
2021/07/09 14:23:31;;;;;;;3.83;2.28;;;;;;;20.84;61.90;100254.34;2216853;40;20041;-85
2021/07/09 14:25:01;;;;;;;3.97;2.10;;;;;;;20.81;61.47;100255.59;2223061;40;20029;-87
2021/07/09 14:26:33;;;;;;;3.75;2.00;;;;;;;20.81;61.24;100258.31;2223015;40;20031;-85
2021/07/09 14:28:06;;;;;;;4.05;2.20;;;;;;;20.92;60.70;100259.56;2218836;40;20037;-87
2021/07/09 14:29:38;;;;;;;4.25;2.10;;;;;;;20.90;60.20;100258.09;2222600;40;20405;-87
2021/07/09 14:31:10;;;;;;;4.55;2.13;;;;;;;20.84;60.39;100257.06;2222531;40;20040;-84
2021/07/09 14:32:42;;;;;;;4.00;2.20;;;;;;;20.85;60.83;100258.72;2222327;40;20025;-86
2021/07/09 14:34:15;;;;;;;4.25;2.10;;;;;;;20.92;61.16;100258.75;2222788;40;20069;-86
2021/07/09 14:35:47;;;;;;;5.13;3.33;;;;;;;20.96;61.60;100262.69;2228421;40;20029;-84
2021/07/09 14:37:18;;;;;;;6.55;2.45;;;;;;;21.08;61.60;100254.75;2228264;40;20040;-86
2021/07/09 14:38:50;;;;;;;4.40;2.65;;;;;;;21.13;61.76;100257.69;2228240;40;20352;-84
2021/07/09 14:40:22;;;;;;;4.97;3.00;;;;;;;21.39;61.51;100256.84;2229311;40;20036;-87
2021/07/09 14:41:54;;;;;;;5.65;2.90;;;;;;;21.51;60.87;100249.69;2216426;40;20062;-91
2021/07/09 14:43:26;;;;;;;5.93;3.10;;;;;;;21.59;60.78;100261.41;2215714;40;20055;-89
2021/07/09 14:44:59;;;;;;;4.70;3.10;;;;;;;21.82;60.41;100260.97;2209206;40;20023;-86
2021/07/09 14:51:31;;;;;;;5.43;3.03;;;;;;;22.01;60.55;100259.22;2211587;40;20682;-81
2021/07/09 14:53:03;;;;;;;6.43;3.53;;;;;;;21.96;60.78;100262.59;2214357;40;20041;-83
2021/07/09 14:54:34;;;;;;;6.88;4.25;;;;;;;21.81;61.34;100260.13;2215143;40;20029;-86
2021/07/09 14:56:06;;;;;;;5.97;3.63;;;;;;;21.75;62.06;100262.84;2218615;40;20483;-85
2021/07/09 14:57:39;;;;;;;6.65;3.92;;;;;;;21.68;62.44;100260.13;2219798;40;20034;-83
2021/07/09 14:59:11;;;;;;;7.50;4.22;;;;;;;21.65;62.80;100263.31;2219106;40;20052;-84
2021/07/09 15:00:43;;;;;;;9.10;4.15;;;;;;;21.61;63.18;100259.31;2221091;40;20049;-86
2021/07/09 15:05:33;;;;;;;5.10;3.42;;;;;;;21.82;63.48;100255.53;2215078;40;20035;-87
2021/07/09 15:07:20;;;;;;;6.93;4.40;;;;;;;22.12;62.53;100249.53;2215898;40;20046;-88
2021/07/09 15:08:55;;;;;;;6.38;4.03;;;;;;;22.23;62.36;100256.19;2214997;40;20042;-85
2021/07/09 15:10:27;;;;;;;5.40;3.92;;;;;;;22.15;62.60;100254.56;2215962;40;20048;-86
2021/07/09 15:11:58;;;;;;;5.55;3.90;;;;;;;22.05;62.79;100254.16;2215764;40;20038;-86
2021/07/09 15:13:33;;;;;;;5.07;3.83;;;;;;;22.03;62.50;100251.69;2209938;40;20030;-89
2021/07/09 15:15:11;;;;;;;6.45;3.78;;;;;;;22.09;62.45;100249.97;2208734;40;20029;-86
2021/07/09 15:16:43;;;;;;;6.95;4.95;;;;;;;22.22;62.46;100252.63;2208576;40;20038;-89
2021/07/09 15:20:05;;;;;;;5.75;3.80;;;;;;;22.41;61.41;100239.16;2208804;40;20030;-87
2021/07/09 15:21:39;;;;;;;6.05;3.47;;;;;;;22.43;61.28;100243.31;2190901;40;20032;-88
2021/07/09 15:23:56;;;;;;;7.93;3.80;;;;;;;22.63;60.97;100247.81;2209447;40;20035;-87
2021/07/09 15:25:31;;;;;;;7.88;3.78;;;;;;;22.93;60.60;100240.91;2207649;40;20039;-85
2021/07/09 15:27:25;;;;;;;7.30;4.30;;;;;;;23.14;59.31;100235.06;2208371;40;20038;-89
2021/07/09 15:29:58;;;;;;;6.80;3.60;;;;;;;23.24;58.60;100233.75;2209289;40;20030;-87
2021/07/09 15:31:32;;;;;;;7.25;3.72;;;;;;;23.37;57.19;100233.63;2205868;40;20030;-86
2021/07/09 15:33:04;;;;;;;5.72;3.88;;;;;;;23.33;56.85;100232.41;2209741;40;20890;-82
2021/07/09 15:34:35;;;;;;;7.28;3.85;;;;;;;23.21;55.22;100232.28;2209530;40;20022;-88
2021/07/09 15:36:07;;;;;;;5.35;3.70;;;;;;;22.92;55.03;100237.34;2209767;40;20393;-85
2021/07/09 15:37:47;;;;;;;5.32;3.60;;;;;;;22.88;54.88;100238.84;2210630;40;20030;-84
2021/07/09 15:39:19;;;;;;;5.72;3.63;;;;;;;23.00;54.57;100234.31;2210197;40;20042;-86
2021/07/09 15:40:51;;;;;;;9.05;6.25;;;;;;;23.00;54.99;100244.41;2209818;40;20081;-87
2021/07/09 15:42:23;;;;;;;7.50;5.53;;;;;;;22.85;55.50;100245.59;2208793;40;20634;-84
2021/07/09 15:43:57;;;;;;;7.63;5.22;;;;;;;22.68;55.79;100236.25;2209257;40;20037;-85
2021/07/09 15:45:28;;;;;;;6.72;5.28;;;;;;;22.69;55.68;100237.94;2202739;40;20163;-88
2021/07/09 15:46:59;;;;;;;6.57;4.75;;;;;;;22.68;55.34;100242.56;2202586;40;20035;-89
2021/07/09 15:48:30;;;;;;;5.75;4.18;;;;;;;22.77;54.20;100242.28;2201979;40;20030;-87
2021/07/09 15:50:03;;;;;;;8.50;4.22;;;;;;;22.76;53.24;100244.19;2190210;40;20036;-87
2021/07/09 15:51:34;;;;;;;5.72;4.18;;;;;;;22.84;52.03;100246.63;2197221;40;20043;-86
2021/07/09 15:53:11;;;;;;;6.43;3.80;;;;;;;22.82;51.38;100246.00;2195854;40;20047;-88
2021/07/09 15:54:45;;;;;;;7.13;3.00;;;;;;;22.73;51.18;100239.16;2195706;40;20767;-87
2021/07/09 15:56:16;;;;;;;5.78;3.60;;;;;;;22.70;50.77;100235.00;2207936;40;20034;-85
2021/07/09 15:57:48;;;;;;;5.03;3.42;;;;;;;22.74;50.26;100238.13;2209783;40;20045;-85
2021/07/09 15:59:20;;;;;;;5.05;3.35;;;;;;;22.64;50.45;100248.66;2209576;40;20030;-88
2021/07/09 16:00:52;;;;;;;6.18;4.13;;;;;;;22.49;50.89;100248.97;2209910;40;20023;-88
2021/07/09 16:02:27;;;;;;;5.78;4.22;;;;;;;22.33;51.42;100242.09;2208853;40;20034;-84
2021/07/09 16:03:59;;;;;;;5.70;4.38;;;;;;;22.22;51.51;100259.97;2207924;40;20034;-85
2021/07/09 16:05:31;;;;;;;5.10;3.60;;;;;;;22.07;51.92;100257.53;2209362;40;20045;-88
2021/07/09 16:07:03;;;;;;;5.55;3.80;;;;;;;21.94;52.70;100251.06;2209836;40;20026;-87
2021/07/09 16:08:34;;;;;;;4.90;3.42;;;;;;;21.83;53.23;100256.34;2196755;40;20034;-86
2021/07/09 16:10:09;;;;;;;7.13;4.22;;;;;;;21.76;53.81;100257.22;2189044;40;20762;-87
2021/07/09 16:11:40;;;;;;;6.07;4.10;;;;;;;21.69;54.37;100252.84;2195362;40;20022;-85
2021/07/09 16:13:12;;;;;;;6.22;4.15;;;;;;;21.59;54.51;100245.94;2208570;40;20038;-88
2021/07/09 16:14:44;;;;;;;7.13;4.00;;;;;;;21.50;54.53;100256.19;2209780;40;20037;-89
2021/07/09 16:16:16;;;;;;;6.43;4.55;;;;;;;21.46;54.93;100246.78;2205040;40;20038;-87
2021/07/09 16:17:47;;;;;;;5.60;4.10;;;;;;;21.49;54.78;100261.84;2209717;40;20030;-89
2021/07/09 16:19:19;;;;;;;7.45;4.15;;;;;;;21.48;55.34;100247.41;2209456;40;20031;-87
2021/07/09 16:20:50;;;;;;;5.10;3.90;;;;;;;21.44;55.52;100248.88;2211020;40;20111;-84
2021/07/09 16:22:21;;;;;;;4.72;3.55;;;;;;;21.51;55.50;100259.75;2221845;40;20037;-85
2021/07/09 16:23:54;;;;;;;6.10;3.50;;;;;;;21.57;54.79;100242.56;2221823;40;20030;-90
2021/07/09 16:25:29;;;;;;;5.00;3.63;;;;;;;21.64;54.54;100248.84;2221831;40;20038;-88
2021/07/09 16:27:01;;;;;;;5.53;3.60;;;;;;;21.64;54.52;100235.25;2221795;40;20782;-85
2021/07/09 16:28:33;;;;;;;6.10;4.05;;;;;;;21.65;54.71;100244.25;2221007;40;20029;-87
2021/07/09 16:30:37;;;;;;;6.53;4.10;;;;;;;21.67;54.86;100231.28;2221752;40;20013;-86
2021/07/09 16:32:08;;;;;;;6.60;4.32;;;;;;;21.58;55.38;100236.13;2192869;40;20030;-88
2021/07/09 16:33:40;;;;;;;5.63;4.22;;;;;;;21.58;55.46;100233.41;2208067;40;20035;-85
2021/07/09 16:35:10;;;;;;;5.65;4.00;;;;;;;;;;2206495;40;20079;-84
2021/07/09 16:36:43;;;;;;;7.72;4.80;;;;;;;21.51;55.99;100229.84;2209384;40;20034;-83
2021/07/09 16:38:15;;;;;;;7.00;4.97;;;;;;;21.52;55.89;100228.78;2209773;40;20015;-88
2021/07/09 16:39:47;;;;;;;6.88;5.03;;;;;;;21.51;55.53;100240.72;2209511;40;20031;-87
2021/07/09 16:41:20;;;;;;;6.88;4.47;;;;;;;21.44;55.45;100227.13;2209905;40;20029;-86
2021/07/09 16:42:53;;;;;;;6.97;5.10;;;;;;;21.43;55.52;100227.34;2209673;40;20054;-88
2021/07/09 16:44:25;;;;;;;9.77;7.43;;;;;;;21.41;55.74;100232.16;2210150;40;20031;-87
2021/07/09 16:46:02;;;;;;;14.52;12.07;;;;;;;21.32;56.12;100229.66;2210224;40;20018;-87
2021/07/09 16:47:35;;;;;;;9.82;7.85;;;;;;;21.37;56.14;100239.03;2210440;40;20034;-88
2021/07/09 16:49:07;;;;;;;8.65;6.70;;;;;;;21.39;56.17;100223.38;2209183;40;20014;-86
2021/07/09 16:50:38;;;;;;;8.70;5.60;;;;;;;21.38;56.27;100216.25;2210140;40;20070;-88
2021/07/09 16:52:24;;;;;;;;;;;;;;;;;;;;;
2021/07/09 17:09:01;;;;;;;8.10;5.65;;;;;;;21.35;57.65;100223.78;2189156;40;20040;-87
2021/07/09 17:10:32;;;;;;;7.75;5.60;;;;;;;21.30;57.66;100218.16;2191273;40;20040;-84
2021/07/09 17:12:05;;;;;;;7.05;5.22;;;;;;;21.26;57.84;100227.75;2191391;40;20032;-86
2021/07/09 17:13:37;;;;;;;7.47;5.43;;;;;;;21.28;57.72;100233.84;2191178;40;20035;-88
2021/07/09 17:15:12;;;;;;;7.15;5.28;;;;;;;21.33;57.55;100215.03;2194269;40;20032;-87
2021/07/09 17:16:43;;;;;;;7.18;4.75;;;;;;;21.33;57.42;100223.19;2209740;40;20042;-88
2021/07/09 17:18:45;;;;;;;8.10;5.70;;;;;;;21.29;57.54;100221.91;2210325;40;20011;-85
2021/07/09 17:20:17;;;;;;;6.95;4.60;;;;;;;21.29;57.68;100219.19;2179116;40;20048;-85
2021/07/09 17:21:49;;;;;;;11.27;5.90;;;;;;;21.23;58.03;100228.22;2196012;40;20022;-90
2021/07/09 17:23:21;;;;;;;9.77;5.28;;;;;;;21.17;58.14;100223.59;2210245;40;20038;-85
2021/07/09 17:24:53;;;;;;;6.80;4.72;;;;;;;21.09;58.22;100230.09;2214887;40;20034;-85
2021/07/09 17:26:27;;;;;;;7.35;4.78;;;;;;;20.96;58.60;100225.50;2222520;40;20480;-88
2021/07/09 17:28:00;;;;;;;6.65;4.97;;;;;;;20.84;58.98;100222.56;2222540;40;20026;-84
2021/07/09 17:29:32;;;;;;;7.07;5.32;;;;;;;20.84;59.25;100228.00;2221914;40;20056;-86
2021/07/09 17:31:07;;;;;;;9.60;5.22;;;;;;;20.82;59.15;100223.81;2218331;40;20041;-87
2021/07/09 17:32:39;;;;;;;7.05;4.70;;;;;;;20.82;59.07;100221.09;2222414;40;20034;-87
2021/07/09 17:34:14;;;;;;;7.43;4.80;;;;;;;20.84;59.32;100224.44;2221967;40;20034;-86
2021/07/09 17:35:49;;;;;;;8.65;4.65;;;;;;;20.85;59.04;100226.13;2222276;40;20017;-89
2021/07/09 17:37:22;;;;;;;7.32;5.32;;;;;;;20.77;59.41;100227.16;2221727;40;20030;-88
2021/07/09 17:38:54;;;;;;;8.88;4.90;;;;;;;20.79;59.61;100229.66;2210230;40;20018;-87
2021/07/09 17:40:30;;;;;;;7.55;4.63;;;;;;;20.80;59.70;100226.75;2209872;40;20106;-85
2021/07/09 17:42:07;;;;;;;9.05;5.88;;;;;;;20.82;59.49;100224.66;2209559;40;20042;-88
2021/07/09 17:43:43;;;;;;;7.07;5.25;;;;;;;20.76;59.91;100224.66;2210416;40;20096;-87
2021/07/09 17:45:23;;;;;;;7.47;5.20;;;;;;;20.73;60.00;100232.16;2209962;40;20022;-88
2021/07/09 17:46:55;;;;;;;9.07;6.57;;;;;;;20.75;60.37;100228.41;2209819;40;20030;-89
2021/07/09 17:48:27;;;;;;;9.82;6.65;;;;;;;20.71;60.50;100230.69;2210119;40;20030;-90
2021/07/09 17:49:59;;;;;;;7.35;5.68;;;;;;;20.71;60.64;100228.78;2210319;40;20030;-89
2021/07/09 17:51:39;;;;;;;7.70;5.50;;;;;;;20.73;60.85;100228.59;2210215;40;20047;-88
2021/07/09 17:53:21;;;;;;;7.75;5.68;;;;;;;20.69;61.03;100230.03;2209440;40;20734;-89
2021/07/09 18:06:59;;;;;;;7.38;4.97;;;;;;;20.71;60.70;100244.25;2221497;40;20053;-87
2021/07/09 18:08:33;;;;;;;6.43;4.70;;;;;;;20.74;60.37;100249.28;2219543;40;21076;-86
2021/07/09 18:10:06;;;;;;;8.20;4.72;;;;;;;20.77;60.34;100245.34;2222319;40;20057;-88
2021/07/09 18:11:38;;;;;;;6.50;4.35;;;;;;;20.80;60.15;100245.75;2222618;40;20058;-88
2021/07/09 18:13:13;;;;;;;7.07;4.72;;;;;;;20.87;59.87;100248.50;2222664;40;20041;-88
2021/07/09 18:14:45;;;;;;;6.47;4.60;;;;;;;20.87;59.92;100243.06;2222359;40;20079;-89
2021/07/09 21:02:15;;;;;;;9.27;6.47;;;;;;;19.24;70.65;100312.16;2216850;40;20091;-85
2021/07/09 21:03:47;;;;;;;8.57;6.30;;;;;;;19.25;70.56;100306.53;2221852;40;20079;-84
2021/07/09 21:05:19;;;;;;;9.02;7.28;;;;;;;19.29;70.58;100304.28;2214717;40;20487;-85
2021/07/09 21:06:49;;;;;;;12.25;6.80;;;;;;;19.29;70.52;100312.41;2221269;40;20025;-86
2021/07/09 21:08:23;;;;;;;8.70;6.55;;;;;;;19.28;70.31;100302.59;2221202;40;20030;-86
2021/07/09 21:09:55;;;;;;;9.60;7.22;;;;;;;19.30;70.73;100303.25;2214436;40;20026;-82
2021/07/09 21:11:25;;;;;;;8.30;6.47;;;;;;;19.30;70.75;100305.94;2221127;40;20500;-83
2021/07/09 21:12:57;;;;;;;10.32;7.30;;;;;;;19.28;70.85;100306.16;2221508;40;20025;-84
2021/07/09 21:14:35;;;;;;;10.05;7.30;;;;;;;19.30;70.44;100297.81;2221616;40;20495;-84
2021/07/09 21:16:06;;;;;;;10.20;6.50;;;;;;;19.33;70.27;100302.88;2208553;40;20027;-86
2021/07/09 21:17:42;;;;;;;8.43;6.25;;;;;;;19.37;70.11;100297.88;2216294;40;20051;-84
2021/07/09 21:19:26;;;;;;;9.07;5.85;;;;;;;19.39;69.88;100295.81;2215201;40;20611;-84